Terminal Aerodrome Forecast
Issued by NWS

Home | Current Version | Previous Version | Text Only | Print | Product List | Glossary Off
Versions: 1 2 3 4 5 6 7 8 9 10 11 12 13 14 15 16 17 18 19

000
FTUS43 KBIS 211139
TAFDIK
TAF
KDIK 211139Z 2112/2212 28023G31KT P6SM SCT040 OVC180
     FM211500 28024G37KT P6SM VCSH BKN035
     FM211900 28028G43KT P6SM BKN045
     FM212200 28024G37KT P6SM SCT140
     FM220000 28018G26KT P6SM SCT250
     FM220300 27010KT P6SM SKC WS020/29035KT
     FM220500 24008KT P6SM SKC=

USA.gov is the U.S. government's official web portal to all federal, state and local government web resources and services.